createdAt,value
2023-05-19T00:00:27.777Z,5.0143
2023-05-19T00:01:35.813Z,4.6643
2023-05-19T00:02:44.112Z,5.7286
2023-05-19T00:03:52.069Z,5.0643
2023-05-19T00:05:00.145Z,5.6714
2023-05-19T00:06:08.276Z,6.1714
2023-05-19T00:07:16.238Z,5.3286
2023-05-19T00:08:24.314Z,4.7857
2023-05-19T00:09:32.389Z,5.2071
2023-05-19T00:10:40.435Z,5.7643
2023-05-19T00:11:48.664Z,3.9857
2023-05-19T00:12:56.565Z,6.2214
2023-05-19T00:14:04.472Z,6.0643
2023-05-19T00:15:12.535Z,5.2286
2023-05-19T00:16:20.648Z,4.6429
2023-05-19T00:17:28.876Z,6.5786
2023-05-19T00:18:36.868Z,6.9286
2023-05-19T00:19:44.913Z,6.0286
2023-05-19T00:20:52.959Z,4.9857
2023-05-19T00:22:01.117Z,4.6643
2023-05-19T00:23:09.238Z,5.6357
2023-05-19T00:24:17.330Z,5.3857
2023-05-19T00:25:25.301Z,4.0929
2023-05-19T00:26:33.358Z,3.8214
2023-05-19T00:27:41.421Z,5.5071
2023-05-19T00:28:49.401Z,4.2929
2023-05-19T00:29:57.470Z,4.3714
2023-05-19T00:31:05.460Z,4.7929
2023-05-19T00:32:13.745Z,6.9714
2023-05-19T00:33:21.759Z,4.5929
2023-05-19T00:34:29.905Z,4.7571
2023-05-19T00:35:37.999Z,4.8643
2023-05-19T00:36:45.922Z,4.6786
2023-05-19T00:37:54.009Z,4.9714
2023-05-19T00:39:02.086Z,4.9357
2023-05-19T00:40:10.197Z,5.3714
2023-05-19T00:41:18.189Z,5.8286
2023-05-19T00:42:26.384Z,4.0000
2023-05-19T00:43:34.205Z,4.5000
2023-05-19T00:44:42.231Z,5.0429
2023-05-19T00:45:50.377Z,5.3000
2023-05-19T00:46:58.570Z,5.3286
2023-05-19T00:48:06.643Z,4.9714
2023-05-19T00:49:14.611Z,5.0643
2023-05-19T00:50:22.722Z,4.6571
2023-05-19T00:51:30.812Z,3.7714
2023-05-19T00:52:38.815Z,5.8429
2023-05-19T00:53:46.898Z,4.5714
2023-05-19T00:54:54.957Z,7.1571
2023-05-19T00:56:03.072Z,4.8000
2023-05-19T00:57:11.210Z,5.1643
2023-05-19T00:58:18.987Z,5.6857
2023-05-19T00:59:27.071Z,5.6929
2023-05-19T01:00:35.372Z,3.8714
2023-05-19T01:01:43.625Z,4.5214
2023-05-19T01:02:51.511Z,4.6214
2023-05-19T01:03:59.653Z,4.9357
2023-05-19T01:05:07.562Z,4.0571
2023-05-19T01:06:15.794Z,4.3571
2023-05-19T01:07:23.631Z,5.5643
2023-05-19T01:08:31.812Z,4.4500
2023-05-19T01:09:39.737Z,4.5357
2023-05-19T01:10:47.820Z,5.1857
2023-05-19T01:11:55.954Z,5.3429
2023-05-19T01:13:03.820Z,5.9000
2023-05-19T01:14:11.962Z,4.3929
2023-05-19T01:15:19.958Z,4.4786
2023-05-19T01:16:28.140Z,4.5429
2023-05-19T01:17:36.370Z,3.2857
2023-05-19T01:18:44.548Z,3.5929
2023-05-19T01:19:52.469Z,3.1571
2023-05-19T01:21:00.396Z,5.2786
2023-05-19T01:22:08.434Z,5.0643
2023-05-19T01:23:16.805Z,5.9643
2023-05-19T01:24:24.710Z,4.1857
2023-05-19T01:25:32.707Z,6.5500
2023-05-19T01:26:40.715Z,4.9357
2023-05-19T01:27:48.597Z,4.8214
2023-05-19T01:28:56.678Z,3.6071
2023-05-19T01:30:04.757Z,5.4643
2023-05-19T01:31:13.072Z,7.1857
2023-05-19T01:32:21.084Z,3.9714
2023-05-19T01:33:29.232Z,5.6429
2023-05-19T01:34:37.198Z,4.6500
2023-05-19T01:35:45.170Z,4.1357
2023-05-19T01:36:53.316Z,5.4143
2023-05-19T01:38:01.493Z,3.7429
2023-05-19T01:39:09.352Z,5.1429
2023-05-19T01:40:17.412Z,4.7857
2023-05-19T01:41:25.622Z,3.7000
2023-05-19T01:42:33.453Z,4.2214
2023-05-19T01:43:41.472Z,4.9857
2023-05-19T01:44:49.547Z,4.8500
2023-05-19T01:45:57.730Z,4.3786
2023-05-19T01:47:05.704Z,5.9786
2023-05-19T01:48:13.937Z,3.5571
2023-05-19T01:49:22.051Z,3.4786
2023-05-19T01:50:30.190Z,4.0643
2023-05-19T01:51:38.068Z,5.5714
2023-05-19T01:52:46.192Z,3.1571
2023-05-19T01:53:54.198Z,4.2643
2023-05-19T01:55:02.217Z,3.7857
2023-05-19T01:56:10.335Z,4.0500
2023-05-19T01:57:18.230Z,4.5500
2023-05-19T01:58:26.298Z,4.2571
2023-05-19T01:59:34.367Z,4.9500
2023-05-19T02:00:42.536Z,4.0929
2023-05-19T02:01:50.564Z,3.8286
2023-05-19T02:02:58.725Z,4.4500
2023-05-19T02:04:06.765Z,4.0857
2023-05-19T02:05:14.975Z,3.7286
2023-05-19T02:06:22.819Z,4.3857
2023-05-19T02:07:30.971Z,5.3000
2023-05-19T02:08:38.992Z,3.6500
2023-05-19T02:09:47.051Z,4.8214
2023-05-19T02:10:55.155Z,4.3571
2023-05-19T02:12:03.070Z,2.9143
2023-05-19T02:13:11.100Z,4.1857
2023-05-19T02:14:19.168Z,6.1500
2023-05-19T02:15:27.371Z,5.2214
2023-05-19T02:16:35.448Z,3.3571
2023-05-19T02:17:43.679Z,3.5071
2023-05-19T02:18:51.622Z,4.8643
2023-05-19T02:19:59.619Z,3.5000
2023-05-19T02:21:07.881Z,4.2000
2023-05-19T02:22:15.802Z,4.1429
2023-05-19T02:23:23.813Z,4.2357
2023-05-19T02:24:31.881Z,4.5429
2023-05-19T02:25:39.943Z,3.5786
2023-05-19T02:26:47.859Z,3.5214
2023-05-19T02:27:55.980Z,3.2500
2023-05-19T02:29:04.011Z,3.8071
2023-05-19T02:30:12.459Z,3.6714
2023-05-19T02:31:20.304Z,4.0286
2023-05-19T02:32:28.351Z,4.8571
2023-05-19T02:33:36.459Z,5.3857
2023-05-19T02:34:44.465Z,3.4929
2023-05-19T02:35:52.523Z,3.9071
2023-05-19T02:37:00.728Z,3.2000
2023-05-19T02:38:08.641Z,3.8643
2023-05-19T02:39:16.732Z,3.5786
2023-05-19T02:40:24.729Z,5.0714
2023-05-19T02:41:32.693Z,4.5214
2023-05-19T02:42:40.756Z,3.8357
2023-05-19T02:43:48.807Z,4.7571
2023-05-19T02:44:57.090Z,4.6786
2023-05-19T02:46:05.118Z,4.1143
2023-05-19T02:47:13.119Z,3.2571
2023-05-19T02:48:21.077Z,3.8000
2023-05-19T02:49:29.259Z,5.4500
2023-05-19T02:50:37.343Z,5.1643
2023-05-19T02:51:45.527Z,3.8071
2023-05-19T02:52:53.498Z,3.4286
2023-05-19T02:54:01.630Z,4.5643
2023-05-19T02:55:09.559Z,4.6000
2023-05-19T02:56:17.688Z,4.9500
2023-05-19T02:57:25.572Z,4.4143
2023-05-19T02:58:33.650Z,3.9571
2023-05-19T02:59:42.102Z,4.5786
2023-05-19T03:00:49.881Z,4.6571
2023-05-19T03:01:58.015Z,3.3214
2023-05-19T03:03:06.096Z,3.9714
2023-05-19T03:04:14.082Z,4.4071
2023-05-19T03:05:22.132Z,4.1857
2023-05-19T03:06:30.212Z,6.1286
2023-05-19T03:07:38.349Z,3.2214
2023-05-19T03:08:46.306Z,4.4214
2023-05-19T03:09:54.383Z,5.9000
2023-05-19T03:11:02.328Z,4.1214
2023-05-19T03:12:10.395Z,4.6500
2023-05-19T03:13:18.446Z,4.0714
2023-05-19T03:14:26.611Z,4.3929
2023-05-19T03:15:34.695Z,3.7214
2023-05-19T03:16:42.784Z,3.0857
2023-05-19T03:17:50.933Z,4.8000
2023-05-19T03:18:58.984Z,5.5071
2023-05-19T03:20:06.931Z,4.2071
2023-05-19T03:21:14.847Z,3.8500
2023-05-19T03:22:23.010Z,4.4429
2023-05-19T03:23:31.099Z,5.7571
2023-05-19T03:24:39.201Z,4.1143
2023-05-19T03:25:47.068Z,4.7286
2023-05-19T03:26:55.160Z,4.4714
2023-05-19T03:28:03.173Z,6.5000
2023-05-19T03:29:11.476Z,5.9571
2023-05-19T03:30:19.461Z,4.4786
2023-05-19T03:31:27.504Z,4.4929
2023-05-19T03:32:35.604Z,5.6714
2023-05-19T03:33:43.853Z,5.5571
2023-05-19T03:34:51.800Z,4.3143
2023-05-19T03:35:59.786Z,4.7071
2023-05-19T03:37:07.860Z,4.9143
2023-05-19T03:38:15.871Z,4.6143
2023-05-19T03:39:23.914Z,5.6643
2023-05-19T03:40:32.136Z,4.4786
2023-05-19T03:41:39.934Z,4.7143
2023-05-19T03:42:47.963Z,4.8357
2023-05-19T03:43:56.190Z,6.4571
2023-05-19T03:45:04.226Z,6.3357
2023-05-19T03:46:12.334Z,5.0357
2023-05-19T03:47:20.452Z,4.7214
2023-05-19T03:48:28.390Z,4.9857
2023-05-19T03:49:36.442Z,5.4571
2023-05-19T03:50:44.837Z,4.6571
2023-05-19T03:51:52.637Z,4.4214
2023-05-19T03:53:00.679Z,4.6500
2023-05-19T03:54:08.672Z,4.3714
2023-05-19T03:55:16.634Z,4.2071
2023-05-19T03:56:24.678Z,4.6571
2023-05-19T03:57:32.774Z,4.5857
2023-05-19T03:58:40.969Z,3.6214
2023-05-19T03:59:49.011Z,5.8643
2023-05-19T04:00:57.054Z,4.4071
2023-05-19T04:02:05.586Z,3.9286
2023-05-19T04:03:13.265Z,6.5143
2023-05-19T04:04:21.274Z,4.9929
2023-05-19T04:05:29.301Z,4.6214
2023-05-19T04:06:37.331Z,4.3643
2023-05-19T04:07:45.623Z,4.5071
2023-05-19T04:08:53.501Z,5.8500
2023-05-19T04:10:01.423Z,4.2143
2023-05-19T04:11:09.468Z,4.3714
2023-05-19T04:12:17.552Z,3.5500
2023-05-19T04:13:25.943Z,4.3429
2023-05-19T04:14:33.829Z,4.6000
2023-05-19T04:15:41.918Z,5.3500
2023-05-19T04:16:49.905Z,4.7929
2023-05-19T04:17:58.015Z,3.4357
2023-05-19T04:19:06.149Z,4.3571
2023-05-19T04:20:14.223Z,4.3929
2023-05-19T04:21:22.153Z,4.3929
2023-05-19T04:22:30.205Z,4.2929
2023-05-19T04:23:38.477Z,3.9500
2023-05-19T04:24:46.253Z,3.2000
2023-05-19T04:25:54.330Z,6.2357
2023-05-19T04:27:02.374Z,4.5714
2023-05-19T04:28:10.527Z,5.2429
2023-05-19T04:29:18.791Z,3.9500
2023-05-19T04:30:26.767Z,4.9571
2023-05-19T04:31:34.999Z,4.7143
2023-05-19T04:32:42.845Z,4.3571
2023-05-19T04:33:50.924Z,4.1714
2023-05-19T04:34:58.961Z,4.4429
2023-05-19T04:36:07.003Z,4.7429
2023-05-19T04:37:15.146Z,4.1929
2023-05-19T04:38:23.157Z,4.7429
2023-05-19T04:39:31.070Z,4.9786
2023-05-19T04:40:39.158Z,5.3214
2023-05-19T04:41:47.242Z,6.4643
2023-05-19T04:42:55.411Z,4.3214
2023-05-19T04:44:03.457Z,4.0714
2023-05-19T04:45:11.565Z,5.9500
2023-05-19T04:46:19.600Z,4.3857
2023-05-19T04:47:27.895Z,4.2714
2023-05-19T04:48:35.745Z,5.6143
2023-05-19T04:49:43.832Z,5.1214
2023-05-19T04:50:51.965Z,4.1714
2023-05-19T04:51:59.926Z,3.7500
2023-05-19T04:53:08.037Z,4.6286
2023-05-19T04:54:15.902Z,5.2429
2023-05-19T04:55:23.966Z,4.3857
2023-05-19T04:56:32.024Z,6.4571
2023-05-19T04:57:40.245Z,4.4429
2023-05-19T04:58:48.317Z,5.0500
2023-05-19T04:59:56.578Z,5.7357
2023-05-19T05:01:04.380Z,5.8071
2023-05-19T05:02:12.607Z,3.5071
2023-05-19T05:03:20.695Z,5.8643
2023-05-19T05:04:28.617Z,4.1786
2023-05-19T05:05:36.769Z,5.4214
2023-05-19T05:06:44.689Z,4.6714
2023-05-19T05:07:52.811Z,4.1071
2023-05-19T05:09:00.699Z,3.8786
2023-05-19T05:10:08.780Z,5.1429
2023-05-19T05:11:16.815Z,3.7000
2023-05-19T05:12:25.000Z,4.2214
2023-05-19T05:13:33.082Z,4.2286
2023-05-19T05:14:41.145Z,4.2071
2023-05-19T05:15:49.210Z,5.0714
2023-05-19T05:16:57.385Z,4.9286
2023-05-19T05:18:05.381Z,4.0714
2023-05-19T05:19:13.595Z,4.3857
2023-05-19T05:20:21.528Z,4.5643
2023-05-19T05:21:29.503Z,5.2357
2023-05-19T05:22:37.555Z,3.9500
2023-05-19T05:23:45.519Z,4.6214
2023-05-19T05:24:53.554Z,4.9071
2023-05-19T05:26:01.614Z,5.7714
2023-05-19T05:27:10.095Z,5.3857
2023-05-19T05:28:17.929Z,5.0714
2023-05-19T05:29:25.986Z,4.5429
2023-05-19T05:30:33.957Z,7.2214
2023-05-19T05:31:42.094Z,4.7571
2023-05-19T05:32:50.211Z,4.3786
2023-05-19T05:33:58.217Z,4.1214
2023-05-19T05:35:06.240Z,5.4929
2023-05-19T05:36:14.434Z,4.9643
2023-05-19T05:37:22.371Z,3.7571
2023-05-19T05:38:30.304Z,5.8500
2023-05-19T05:39:38.365Z,3.8643
2023-05-19T05:40:46.395Z,4.4071
2023-05-19T05:41:54.616Z,3.9214
2023-05-19T05:43:02.641Z,5.1714
2023-05-19T05:44:10.700Z,4.6714
2023-05-19T05:45:18.816Z,3.3357
2023-05-19T05:46:27.076Z,4.2500
2023-05-19T05:47:34.913Z,4.7643
2023-05-19T05:48:43.035Z,5.5643
2023-05-19T05:49:52.995Z,4.7286
2023-05-19T05:51:03.929Z,4.8067
2023-05-19T05:52:11.836Z,4.7071
2023-05-19T05:53:19.940Z,5.0786
2023-05-19T05:54:28.014Z,5.5071
2023-05-19T05:55:36.185Z,4.6357
2023-05-19T05:56:44.239Z,5.2000
2023-05-19T05:57:52.305Z,4.6643
2023-05-19T05:59:00.414Z,5.8571
2023-05-19T06:00:08.574Z,6.0786
2023-05-19T06:01:16.506Z,6.2214
2023-05-19T06:02:24.579Z,5.9143
2023-05-19T06:03:32.708Z,5.8643
2023-05-19T06:04:40.769Z,5.8500
2023-05-19T06:05:48.777Z,5.2143
2023-05-19T06:06:56.638Z,6.1571
2023-05-19T06:08:04.780Z,5.3286
2023-05-19T06:09:12.820Z,5.2214
2023-05-19T06:10:20.942Z,5.3357
2023-05-19T06:11:29.040Z,5.1286
2023-05-19T06:12:37.100Z,5.5714
2023-05-19T06:13:45.337Z,5.5429
2023-05-19T06:14:53.197Z,4.7286
2023-05-19T06:16:02.244Z,6.7357
2023-05-19T06:17:09.329Z,5.4000
2023-05-19T06:18:17.448Z,6.0571
2023-05-19T06:19:25.640Z,6.2000
2023-05-19T06:20:33.567Z,5.3429
2023-05-19T06:21:41.415Z,5.7286
2023-05-19T06:22:49.511Z,4.3786
2023-05-19T06:23:57.730Z,5.5571
2023-05-19T06:25:05.921Z,7.9714
2023-05-19T06:26:13.803Z,7.9500
2023-05-19T06:27:21.831Z,6.6143
2023-05-19T06:28:29.967Z,5.3643
2023-05-19T06:29:38.079Z,4.4143
2023-05-19T06:30:46.052Z,5.1500
2023-05-19T06:31:54.250Z,5.4929
2023-05-19T06:33:02.177Z,4.9857
2023-05-19T06:34:10.251Z,4.6214
2023-05-19T06:35:18.193Z,6.2000
2023-05-19T06:36:26.225Z,4.8143
2023-05-19T06:37:34.301Z,6.1857
2023-05-19T06:38:42.467Z,6.1000
2023-05-19T06:39:50.505Z,5.8500
2023-05-19T06:40:58.830Z,5.5429
2023-05-19T06:42:06.671Z,5.7643
2023-05-19T06:43:14.705Z,6.5500
2023-05-19T06:44:22.752Z,6.0786
2023-05-19T06:45:30.790Z,5.0643
2023-05-19T06:46:39.204Z,5.1357
2023-05-19T06:47:46.982Z,6.0143
2023-05-19T06:48:55.170Z,6.5929
2023-05-19T06:50:02.969Z,5.9071
2023-05-19T06:51:11.027Z,7.7286
2023-05-19T06:52:19.104Z,5.6357
2023-05-19T06:53:27.276Z,4.5714
2023-05-19T06:54:35.344Z,6.5214
2023-05-19T06:55:57.540Z,9.9571
2023-05-19T06:56:56.528Z,6.9667
2023-05-19T06:58:04.394Z,5.4643
2023-05-19T06:59:12.448Z,6.0357
2023-05-19T07:00:22.894Z,7.3929
2023-05-19T07:01:33.643Z,6.2533
2023-05-19T07:02:41.660Z,6.3000
2023-05-19T07:03:49.488Z,5.8714
2023-05-19T07:04:57.486Z,6.3357
2023-05-19T07:06:07.931Z,5.5286
2023-05-19T07:07:18.544Z,5.0333
2023-05-19T07:08:26.679Z,6.4571
2023-05-19T07:09:34.932Z,6.3429
2023-05-19T07:10:42.819Z,6.4571
2023-05-19T07:11:50.851Z,6.2571
2023-05-19T07:12:59.040Z,5.7071
2023-05-19T07:14:06.900Z,5.7000
2023-05-19T07:15:14.927Z,7.5500
2023-05-19T07:16:23.037Z,6.7786
2023-05-19T07:17:31.040Z,5.8286
2023-05-19T07:18:39.145Z,6.4357
2023-05-19T07:19:47.221Z,6.4000
2023-05-19T07:20:55.214Z,6.0214
2023-05-19T07:22:03.470Z,6.3857
2023-05-19T07:23:11.477Z,6.6000
2023-05-19T07:24:19.469Z,6.5857
2023-05-19T07:25:27.552Z,5.6143
2023-05-19T07:26:35.642Z,7.2000
2023-05-19T07:27:43.768Z,6.0786
2023-05-19T07:28:51.712Z,6.5143
2023-05-19T07:29:59.812Z,5.6571
2023-05-19T07:31:07.753Z,6.8071
2023-05-19T07:32:15.876Z,6.3857
2023-05-19T07:33:23.925Z,6.2500
2023-05-19T07:34:32.074Z,8.0357
2023-05-19T07:35:40.147Z,6.9857
2023-05-19T07:36:48.182Z,7.2571
2023-05-19T07:37:56.352Z,6.2000
2023-05-19T07:39:04.344Z,5.6071
2023-05-19T07:40:12.372Z,4.7786
2023-05-19T07:41:20.387Z,6.5000
2023-05-19T07:42:28.545Z,6.7214
2023-05-19T07:43:36.598Z,5.5929
2023-05-19T07:44:44.809Z,8.0643
2023-05-19T07:45:52.776Z,7.6071
2023-05-19T07:47:00.687Z,6.2857
2023-05-19T07:48:08.987Z,5.8786
2023-05-19T07:49:16.726Z,6.9500
2023-05-19T07:50:24.792Z,5.7143
2023-05-19T07:51:32.868Z,6.0071
2023-05-19T07:52:41.151Z,8.3500
2023-05-19T07:53:49.154Z,5.9500
2023-05-19T07:54:57.144Z,7.3143
2023-05-19T07:56:05.391Z,5.2000
2023-05-19T07:57:13.376Z,6.0643
2023-05-19T07:58:21.337Z,6.6214
2023-05-19T07:59:29.386Z,5.9357
2023-05-19T08:00:37.540Z,6.9714
2023-05-19T08:01:45.519Z,7.7714
2023-05-19T08:02:53.674Z,6.1714
2023-05-19T08:04:01.580Z,7.7429
2023-05-19T08:05:09.573Z,4.9214
2023-05-19T08:06:17.674Z,5.6214
2023-05-19T08:07:26.023Z,6.1000
2023-05-19T08:08:34.084Z,5.6714
2023-05-19T08:09:41.946Z,5.5286
2023-05-19T08:10:50.058Z,6.7714
2023-05-19T08:11:58.193Z,7.4643
2023-05-19T08:13:06.102Z,5.6500
2023-05-19T08:14:14.173Z,6.0286
2023-05-19T08:15:22.308Z,7.1000
2023-05-19T08:16:30.635Z,6.4214
2023-05-19T08:17:38.319Z,8.1714
2023-05-19T08:18:46.387Z,6.2714
2023-05-19T08:19:54.332Z,6.3714
2023-05-19T08:21:02.541Z,7.0143
2023-05-19T08:22:10.615Z,6.6500
2023-05-19T08:23:18.685Z,6.6214
2023-05-19T08:24:26.792Z,6.3000
2023-05-19T08:25:34.812Z,7.6143
2023-05-19T08:26:42.879Z,6.3571
2023-05-19T08:27:51.089Z,6.8929
2023-05-19T08:28:59.029Z,5.4286
2023-05-19T08:30:07.024Z,7.3786
2023-05-19T08:31:15.247Z,6.0071
2023-05-19T08:32:23.099Z,6.8643
2023-05-19T08:33:31.083Z,7.4429
2023-05-19T08:34:39.139Z,8.0714
2023-05-19T08:35:47.489Z,7.3286
2023-05-19T08:36:55.546Z,6.1143
2023-05-19T08:38:03.453Z,6.8071
2023-05-19T08:39:11.591Z,8.1214
2023-05-19T08:40:19.656Z,7.5143
2023-05-19T08:41:27.820Z,6.9929
2023-05-19T08:42:35.767Z,5.9143
2023-05-19T08:43:43.831Z,7.1214
2023-05-19T08:44:52.187Z,8.5429
2023-05-19T08:45:59.896Z,7.9000
2023-05-19T08:47:08.021Z,7.3643
2023-05-19T08:48:16.003Z,6.2857
2023-05-19T08:49:25.570Z,7.4357
2023-05-19T08:50:32.506Z,6.5714
2023-05-19T08:51:40.155Z,8.6000
2023-05-19T08:52:51.796Z,7.1786
2023-05-19T08:54:01.288Z,7.2067
2023-05-19T08:55:09.340Z,9.1286
2023-05-19T08:56:17.331Z,6.3714
2023-05-19T08:57:25.475Z,6.8643
2023-05-19T08:58:33.515Z,6.9500
2023-05-19T08:59:41.402Z,7.2357
2023-05-19T09:00:49.517Z,8.6571
2023-05-19T09:01:57.578Z,7.0500
2023-05-19T09:04:13.911Z,8.0071
2023-05-19T09:05:21.914Z,7.7429
2023-05-19T09:06:29.921Z,6.7357
2023-05-19T09:07:38.072Z,8.8000
2023-05-19T09:08:45.998Z,7.3571
2023-05-19T09:09:54.349Z,7.3643
2023-05-19T09:11:02.171Z,7.5000
2023-05-19T09:12:10.291Z,7.3286
2023-05-19T09:13:18.255Z,8.5857
2023-05-19T09:14:26.216Z,8.0500
2023-05-19T09:15:34.602Z,7.4071
2023-05-19T09:16:42.389Z,6.9143
2023-05-19T09:17:50.640Z,6.1714
2023-05-19T09:18:58.621Z,6.6429
2023-05-19T09:20:06.680Z,7.1429
2023-05-19T09:21:14.716Z,7.1214
2023-05-19T09:22:22.836Z,9.7000
2023-05-19T09:23:30.819Z,6.4714
2023-05-19T09:24:38.863Z,8.0143
2023-05-19T09:25:46.981Z,6.7500
2023-05-19T09:26:55.756Z,6.4857
2023-05-19T09:28:07.868Z,6.2000
2023-05-19T09:29:15.853Z,7.6500
2023-05-19T09:30:23.885Z,7.2071
2023-05-19T09:31:32.161Z,7.3143
2023-05-19T09:32:40.165Z,7.7357
2023-05-19T09:33:48.281Z,7.2000
2023-05-19T09:34:56.529Z,7.1143
2023-05-19T09:36:04.320Z,7.2500
2023-05-19T09:37:12.370Z,7.3143
2023-05-19T09:38:20.564Z,7.4286
2023-05-19T09:39:28.553Z,7.5143
2023-05-19T09:40:36.607Z,8.3357
2023-05-19T09:41:44.667Z,6.1714
2023-05-19T09:42:52.572Z,7.7357
2023-05-19T09:44:00.678Z,8.4643
2023-05-19T09:45:08.678Z,7.6071
2023-05-19T09:46:16.885Z,7.6571
2023-05-19T09:47:24.903Z,6.4643
2023-05-19T09:48:32.991Z,7.0429
2023-05-19T09:49:41.279Z,6.6571
2023-05-19T09:50:49.260Z,7.2714
2023-05-19T09:51:57.195Z,7.9643
2023-05-19T09:53:05.261Z,6.8214
2023-05-19T09:54:13.385Z,7.6714
2023-05-19T09:55:21.358Z,8.1929
2023-05-19T09:56:29.442Z,7.4214
2023-05-19T09:57:37.358Z,6.2643
2023-05-19T09:58:45.414Z,6.0643
2023-05-19T09:59:53.487Z,7.0000
2023-05-19T10:01:01.631Z,6.2929
2023-05-19T10:02:09.760Z,8.1929
2023-05-19T10:03:17.828Z,8.2714
2023-05-19T10:04:25.922Z,8.8714
2023-05-19T10:05:34.320Z,9.3929
2023-05-19T10:06:42.296Z,8.1643
2023-05-19T10:07:50.044Z,8.0357
2023-05-19T10:08:58.157Z,8.1000
2023-05-19T10:10:06.175Z,6.2857
2023-05-19T10:11:14.209Z,6.5786
2023-05-19T10:12:22.159Z,7.0929
2023-05-19T10:13:30.232Z,9.0214
2023-05-19T10:14:38.275Z,6.5071
2023-05-19T10:15:57.327Z,7.5000
2023-05-19T10:16:59.481Z,7.4067
2023-05-19T10:18:07.545Z,5.7357
2023-05-19T10:19:15.548Z,7.7571
2023-05-19T10:20:23.573Z,7.1214
2023-05-19T10:21:31.667Z,6.9571
2023-05-19T10:22:39.753Z,7.4857
2023-05-19T10:23:47.895Z,6.2786
2023-05-19T10:24:55.820Z,7.4857
2023-05-19T10:26:03.754Z,8.0643
2023-05-19T10:27:11.834Z,9.8429
2023-05-19T10:28:19.921Z,6.9214
2023-05-19T10:29:28.129Z,7.2071
2023-05-19T10:30:36.110Z,9.0500
2023-05-19T10:31:44.338Z,7.4929
2023-05-19T10:32:52.308Z,7.4357
2023-05-19T10:34:00.398Z,7.7143
2023-05-19T10:35:08.460Z,7.7286
2023-05-19T10:36:16.535Z,9.9571
2023-05-19T10:37:24.538Z,9.6429
2023-05-19T10:38:32.543Z,7.8857
2023-05-19T10:39:40.657Z,9.2071
2023-05-19T10:40:48.543Z,9.8214
2023-05-19T10:41:56.629Z,8.6000
2023-05-19T10:43:04.672Z,8.2071
2023-05-19T10:44:12.916Z,10.1929
2023-05-19T10:45:21.127Z,9.3929
2023-05-19T10:46:28.959Z,7.8571
2023-05-19T10:47:37.046Z,8.1571
2023-05-19T10:48:45.125Z,7.2714
2023-05-19T10:49:53.344Z,8.2357
2023-05-19T10:51:01.272Z,9.5071
2023-05-19T10:52:09.369Z,9.8143
2023-05-19T10:53:17.349Z,9.5357
2023-05-19T10:54:25.689Z,8.4357
2023-05-19T10:55:33.525Z,9.2071
2023-05-19T10:56:41.443Z,7.4000
2023-05-19T10:57:49.510Z,8.2714
2023-05-19T10:58:57.644Z,8.5214
2023-05-19T11:00:05.692Z,8.7214
2023-05-19T11:01:13.837Z,8.8429
2023-05-19T11:02:21.807Z,10.2286
2023-05-19T11:04:37.913Z,8.7429
2023-05-19T11:05:46.011Z,9.3071
2023-05-19T11:06:54.117Z,7.6357
2023-05-19T11:08:02.201Z,6.6214
2023-05-19T11:09:10.160Z,7.2143
2023-05-19T11:10:18.133Z,7.3357
2023-05-19T11:11:26.202Z,10.1786
2023-05-19T11:12:34.210Z,9.8071
2023-05-19T11:13:42.405Z,9.0143
2023-05-19T11:14:50.451Z,7.2500
2023-05-19T11:15:58.562Z,8.2786
2023-05-19T11:17:06.728Z,8.7000
2023-05-19T11:18:14.703Z,7.7929
2023-05-19T11:19:22.886Z,7.4857
2023-05-19T11:20:30.794Z,8.4786
2023-05-19T11:21:38.962Z,7.6643
2023-05-19T11:22:46.892Z,6.8714
2023-05-19T11:23:55.121Z,6.9857
2023-05-19T11:25:02.865Z,8.5786
2023-05-19T11:26:10.961Z,8.5000
2023-05-19T11:27:19.109Z,8.2286
2023-05-19T11:28:27.277Z,7.8357
2023-05-19T11:29:35.245Z,8.9429
2023-05-19T11:30:43.347Z,8.6571
2023-05-19T11:31:51.555Z,5.7357
2023-05-19T11:32:59.442Z,7.5714
2023-05-19T11:34:07.503Z,8.9500
2023-05-19T11:35:15.668Z,9.0714
2023-05-19T11:36:23.630Z,7.5571
2023-05-19T11:37:31.675Z,9.5286
2023-05-19T11:38:39.690Z,8.0071
2023-05-19T11:39:47.689Z,7.2857
2023-05-19T11:40:55.749Z,8.0071
2023-05-19T11:42:03.824Z,7.8643
2023-05-19T11:43:11.915Z,6.8357
2023-05-19T11:44:20.007Z,7.8143
2023-05-19T11:45:28.079Z,8.9286
2023-05-19T11:46:36.472Z,10.8000
2023-05-19T11:48:00.827Z,7.9286
2023-05-19T11:48:57.393Z,7.7800
2023-05-19T11:50:05.215Z,9.2357
2023-05-19T11:51:13.335Z,8.4643
2023-05-19T11:52:21.383Z,9.8786
2023-05-19T11:53:29.246Z,8.6857
2023-05-19T11:54:37.332Z,8.7143
2023-05-19T11:55:45.803Z,8.2071
2023-05-19T11:56:53.713Z,7.1643
2023-05-19T11:58:04.649Z,7.6214
2023-05-19T11:59:14.546Z,6.0067
2023-05-19T12:00:22.573Z,7.3714
2023-05-19T12:01:30.637Z,7.6786
2023-05-19T12:02:38.864Z,7.6429
2023-05-19T12:03:46.922Z,7.1000
2023-05-19T12:04:54.963Z,6.2429
2023-05-19T12:06:02.961Z,6.7500
2023-05-19T12:07:10.847Z,6.5286
2023-05-19T12:08:18.997Z,7.6143
2023-05-19T12:09:27.030Z,6.5929
2023-05-19T12:10:35.133Z,6.8571
2023-05-19T12:11:43.207Z,7.8857
2023-05-19T12:12:51.226Z,7.2000
2023-05-19T12:13:59.325Z,6.5714
2023-05-19T12:15:07.347Z,5.8786
2023-05-19T12:16:15.522Z,6.1143
2023-05-19T12:17:23.602Z,7.4643
2023-05-19T12:18:31.520Z,7.5286
2023-05-19T12:19:39.593Z,8.3000
2023-05-19T12:20:47.776Z,6.2071
2023-05-19T12:21:55.675Z,6.5000
2023-05-19T12:23:03.850Z,8.7429
2023-05-19T12:24:11.812Z,5.9429
2023-05-19T12:25:19.857Z,6.4500
2023-05-19T12:26:28.049Z,5.0786
2023-05-19T12:27:35.971Z,7.7714
2023-05-19T12:28:44.156Z,7.3286
2023-05-19T12:29:52.170Z,7.6429
2023-05-19T12:31:00.332Z,5.9929
2023-05-19T12:32:08.425Z,7.8071
2023-05-19T12:33:16.468Z,6.6357
2023-05-19T12:34:24.417Z,6.3000
2023-05-19T12:35:32.488Z,6.9500
2023-05-19T12:36:40.494Z,7.2286
2023-05-19T12:37:48.524Z,5.6786
2023-05-19T12:38:56.560Z,5.4071
2023-05-19T12:40:04.845Z,7.0643
2023-05-19T12:41:13.023Z,6.4071
2023-05-19T12:42:20.831Z,6.0500
2023-05-19T12:43:28.962Z,7.5286
2023-05-19T12:44:36.963Z,7.1714
2023-05-19T12:45:45.129Z,6.5643
2023-05-19T12:46:53.235Z,6.4143
2023-05-19T12:48:01.372Z,5.4000
2023-05-19T12:49:09.313Z,6.0929
2023-05-19T12:50:17.390Z,8.7571
2023-05-19T12:51:25.367Z,6.4214
2023-05-19T12:52:33.385Z,6.0643
2023-05-19T12:53:41.436Z,6.6929
2023-05-19T12:54:49.629Z,6.4286
2023-05-19T12:55:57.746Z,6.6000
2023-05-19T12:57:05.913Z,7.5357
2023-05-19T12:58:13.874Z,7.1000
2023-05-19T12:59:37.093Z,6.1500
2023-05-19T13:00:34.987Z,5.8667
2023-05-19T13:01:42.912Z,7.5929
2023-05-19T13:02:51.110Z,7.5571
2023-05-19T13:03:59.206Z,6.2857
2023-05-19T13:05:06.920Z,6.7500
2023-05-19T13:06:14.991Z,7.0786
2023-05-19T13:07:23.042Z,7.8643
2023-05-19T13:08:31.469Z,6.8143
2023-05-19T13:09:39.274Z,7.3286
2023-05-19T13:10:47.589Z,7.7500
2023-05-19T13:11:55.450Z,7.6357
2023-05-19T13:13:03.552Z,6.5857
2023-05-19T13:14:11.515Z,7.2429
2023-05-19T13:15:19.595Z,7.4429
2023-05-19T13:16:27.671Z,8.2857
2023-05-19T13:17:35.768Z,8.4714
2023-05-19T13:18:43.816Z,7.2929
2023-05-19T13:19:51.824Z,6.5000
2023-05-19T13:20:59.819Z,6.8429
2023-05-19T13:22:07.951Z,8.6643
2023-05-19T13:23:16.212Z,7.6071
2023-05-19T13:24:24.336Z,7.5643
2023-05-19T13:25:32.220Z,6.0929
2023-05-19T13:26:40.265Z,6.8929
2023-05-19T13:27:48.334Z,9.0357
2023-05-19T13:28:56.361Z,7.5214
2023-05-19T13:30:04.451Z,6.7929
2023-05-19T13:31:12.533Z,7.4857
2023-05-19T13:32:20.639Z,8.7714
2023-05-19T13:33:28.504Z,8.3643
2023-05-19T13:34:36.539Z,8.6071
2023-05-19T13:35:44.636Z,6.5143
2023-05-19T13:36:52.709Z,7.9929
2023-05-19T13:38:00.897Z,6.8500
2023-05-19T13:39:09.077Z,7.4071
2023-05-19T13:40:17.042Z,6.9286
2023-05-19T13:41:25.044Z,7.7786
2023-05-19T13:42:33.148Z,7.1714
2023-05-19T13:43:41.211Z,6.8000
2023-05-19T13:44:49.237Z,7.8357
2023-05-19T13:45:57.454Z,6.4929
2023-05-19T13:47:05.347Z,7.8571
2023-05-19T13:48:13.540Z,7.2357
2023-05-19T13:49:21.315Z,7.2357
2023-05-19T13:50:29.401Z,7.3786
2023-05-19T13:51:37.512Z,7.4929
2023-05-19T13:52:45.679Z,7.4214
2023-05-19T13:53:53.652Z,8.8000
2023-05-19T13:55:01.892Z,9.3286
2023-05-19T13:56:09.803Z,7.9214
2023-05-19T13:57:17.839Z,8.6857
2023-05-19T13:58:25.979Z,8.1857
2023-05-19T13:59:33.979Z,8.3286
2023-05-19T14:00:42.040Z,6.6714
2023-05-19T14:01:50.182Z,7.0000
2023-05-19T14:02:58.482Z,7.2429
2023-05-19T14:04:07.022Z,8.0357
2023-05-19T14:05:14.190Z,9.1929
2023-05-19T14:06:22.214Z,7.4643
2023-05-19T14:07:30.417Z,7.2286
2023-05-19T14:08:38.525Z,7.7214
2023-05-19T14:09:46.531Z,6.8214
2023-05-19T14:10:54.726Z,8.1786
2023-05-19T14:12:02.619Z,9.7286